createdAt,value
2022-11-03T00:01:55.887Z,8.10
2022-11-03T00:04:30.901Z,7.90
2022-11-03T00:07:05.939Z,6.90
2022-11-03T00:09:40.789Z,7.37
2022-11-03T00:12:15.841Z,6.20
2022-11-03T00:14:50.661Z,7.20
2022-11-03T00:17:25.504Z,6.87
2022-11-03T00:20:00.335Z,6.53
2022-11-03T00:22:35.193Z,6.90
2022-11-03T00:25:10.093Z,6.87
2022-11-03T00:27:44.993Z,7.30
2022-11-03T00:30:19.820Z,6.10
2022-11-03T00:32:54.639Z,7.63
2022-11-03T00:35:29.497Z,7.53
2022-11-03T00:38:04.347Z,7.90
2022-11-03T00:40:39.188Z,7.97
2022-11-03T00:43:15.081Z,7.10
2022-11-03T00:45:50.821Z,7.50
2022-11-03T00:48:35.002Z,7.30
2022-11-03T00:51:17.142Z,6.93
2022-11-03T00:53:58.128Z,6.90
2022-11-03T00:56:38.752Z,6.37
2022-11-03T00:59:13.646Z,7.77
2022-11-03T01:01:48.600Z,6.73
2022-11-03T01:04:42.438Z,6.70
2022-11-03T01:07:21.209Z,7.50
2022-11-03T01:09:56.038Z,7.00
2022-11-03T01:12:30.869Z,7.03
2022-11-03T01:15:06.310Z,7.83
2022-11-03T01:17:41.485Z,9.80
2022-11-03T01:20:16.318Z,7.20
2022-11-03T01:22:51.162Z,7.83
2022-11-03T01:25:26.423Z,7.40
2022-11-03T01:30:42.500Z,7.83
2022-11-03T01:33:17.380Z,8.17
2022-11-03T01:35:53.856Z,7.20
2022-11-03T01:38:33.297Z,7.87
2022-11-03T01:41:16.010Z,8.13
2022-11-03T01:44:11.922Z,7.50
2022-11-03T01:46:55.032Z,7.23
2022-11-03T01:49:48.832Z,7.83
2022-11-03T01:52:37.597Z,8.00
2022-11-03T01:55:36.277Z,7.40
2022-11-03T01:58:19.172Z,6.90
2022-11-03T02:00:56.542Z,7.50
2022-11-03T02:03:42.621Z,7.80
2022-11-03T02:06:23.942Z,7.40
2022-11-03T02:09:07.956Z,7.50
2022-11-03T02:12:01.291Z,6.90
2022-11-03T02:14:45.571Z,7.87
2022-11-03T02:17:21.840Z,7.17
2022-11-03T02:20:20.776Z,7.63
2022-11-03T02:23:08.085Z,8.10
2022-11-03T02:25:49.419Z,7.67
2022-11-03T02:28:33.971Z,7.77
2022-11-03T02:31:08.830Z,7.60
2022-11-03T02:33:53.345Z,6.87
2022-11-03T02:36:41.613Z,8.10
2022-11-03T02:39:31.233Z,7.23
2022-11-03T02:42:09.122Z,8.40
2022-11-03T02:44:45.789Z,8.00
2022-11-03T02:47:22.882Z,8.60
2022-11-03T02:49:58.154Z,8.50
2022-11-03T02:52:46.686Z,7.87
2022-11-03T02:55:48.963Z,8.83
2022-11-03T02:59:22.404Z,8.83
2022-11-03T03:02:16.258Z,8.50
2022-11-03T03:04:57.345Z,7.30
2022-11-03T03:07:37.352Z,7.83
2022-11-03T03:10:20.353Z,8.20
2022-11-03T03:12:58.431Z,8.27
2022-11-03T03:15:40.456Z,8.80
2022-11-03T03:18:29.535Z,9.30
2022-11-03T03:21:16.750Z,8.67
2022-11-03T03:24:19.968Z,9.40
2022-11-03T03:26:59.962Z,8.57
2022-11-03T03:29:48.683Z,8.57
2022-11-03T03:32:27.081Z,8.20
2022-11-03T03:35:05.159Z,8.60
2022-11-03T03:37:46.213Z,8.47
2022-11-03T03:40:28.522Z,7.83
2022-11-03T03:43:07.075Z,8.43
2022-11-03T03:45:45.184Z,8.23
2022-11-03T03:48:20.305Z,7.63
2022-11-03T03:50:55.681Z,8.10
2022-11-03T03:53:31.036Z,8.60
2022-11-03T03:56:06.466Z,8.57
2022-11-03T03:58:41.338Z,8.40
2022-11-03T04:01:16.346Z,7.90
2022-11-03T04:03:51.351Z,8.57
2022-11-03T04:06:26.300Z,8.93
2022-11-03T04:09:01.172Z,7.50
2022-11-03T04:11:54.708Z,8.87
2022-11-03T04:14:48.157Z,8.07
2022-11-03T04:17:41.724Z,8.13
2022-11-03T04:20:35.038Z,8.97
2022-11-03T04:23:09.924Z,8.03
2022-11-03T04:25:54.727Z,8.30
2022-11-03T04:28:29.757Z,8.10
2022-11-03T04:31:11.440Z,8.90
2022-11-03T04:33:47.252Z,8.87
2022-11-03T04:36:24.629Z,8.13
2022-11-03T04:38:59.532Z,8.57
2022-11-03T04:41:34.403Z,8.10
2022-11-03T04:44:16.116Z,9.00
2022-11-03T04:46:53.633Z,7.60
2022-11-03T04:49:28.709Z,8.33
2022-11-03T04:52:03.987Z,8.60
2022-11-03T04:54:38.822Z,10.30
2022-11-03T04:57:16.263Z,9.40
2022-11-03T04:59:51.278Z,8.90
2022-11-03T05:02:26.408Z,8.30
2022-11-03T05:05:01.304Z,8.23
2022-11-03T05:07:36.753Z,9.20
2022-11-03T05:10:21.028Z,9.37
2022-11-03T05:12:56.712Z,8.20
2022-11-03T05:15:40.533Z,8.50
2022-11-03T05:18:33.335Z,7.07
2022-11-03T05:21:12.540Z,7.73
2022-11-03T05:23:52.762Z,8.50
2022-11-03T05:26:32.999Z,9.10
2022-11-03T05:29:20.013Z,7.73
2022-11-03T05:31:55.869Z,8.47
2022-11-03T05:34:30.745Z,7.90
2022-11-03T05:37:28.890Z,8.30
2022-11-03T05:40:37.139Z,9.53
2022-11-03T05:43:14.692Z,8.67
2022-11-03T05:45:54.835Z,8.23
2022-11-03T05:48:39.288Z,7.40
2022-11-03T05:51:25.274Z,7.93
2022-11-03T05:54:04.927Z,6.87
2022-11-03T05:56:39.799Z,7.47
2022-11-03T05:59:20.134Z,7.70
2022-11-03T06:01:59.625Z,7.30
2022-11-03T06:04:40.270Z,7.73
2022-11-03T06:07:26.838Z,7.20
2022-11-03T06:10:01.874Z,8.17
2022-11-03T06:12:36.809Z,7.70
2022-11-03T06:15:28.627Z,7.93
2022-11-03T06:18:20.367Z,8.80
2022-11-03T06:20:59.989Z,8.43
2022-11-03T06:23:36.400Z,8.30
2022-11-03T06:26:31.403Z,8.83
2022-11-03T06:29:12.393Z,9.20
2022-11-03T06:31:54.551Z,9.37
2022-11-03T06:34:33.945Z,8.77
2022-11-03T06:37:23.523Z,8.50
2022-11-03T06:40:03.339Z,8.93
2022-11-03T06:42:40.026Z,9.10
2022-11-03T06:45:23.606Z,9.20
2022-11-03T06:47:58.717Z,8.60
2022-11-03T06:50:34.161Z,8.40
2022-11-03T06:53:10.113Z,9.20
2022-11-03T06:55:46.984Z,8.80
2022-11-03T06:58:31.348Z,8.40
2022-11-03T07:01:30.686Z,8.30
2022-11-03T07:04:29.786Z,8.73
2022-11-03T07:07:05.404Z,8.17
2022-11-03T07:09:40.424Z,8.07
2022-11-03T07:12:18.460Z,8.80
2022-11-03T07:14:53.468Z,8.53
2022-11-03T07:17:28.473Z,8.50
2022-11-03T07:20:04.148Z,8.10
2022-11-03T07:22:39.203Z,8.90
2022-11-03T07:25:20.489Z,8.60
2022-11-03T07:27:57.378Z,8.60
2022-11-03T07:30:35.447Z,7.90
2022-11-03T07:33:24.586Z,7.40
2022-11-03T07:36:16.863Z,8.40
2022-11-03T07:38:55.103Z,8.23
2022-11-03T07:41:34.555Z,8.50
2022-11-03T07:44:17.225Z,7.83
2022-11-03T07:46:52.228Z,7.60
2022-11-03T07:49:30.149Z,8.43
2022-11-03T07:52:14.826Z,7.10
2022-11-03T07:54:52.262Z,7.67
2022-11-03T07:57:31.248Z,7.20
2022-11-03T08:00:13.232Z,6.27
2022-11-03T08:02:58.398Z,6.70
2022-11-03T08:05:33.345Z,7.17
2022-11-03T08:08:08.695Z,7.20
2022-11-03T08:10:43.776Z,8.03
2022-11-03T08:13:18.669Z,7.17
2022-11-03T08:15:53.683Z,7.13
2022-11-03T08:18:28.716Z,8.43
2022-11-03T08:21:04.170Z,6.30
2022-11-03T08:23:43.246Z,7.30
2022-11-03T08:26:21.931Z,6.70
2022-11-03T08:28:57.190Z,7.90
2022-11-03T08:31:32.217Z,6.23
2022-11-03T08:34:07.175Z,6.77
2022-11-03T08:36:42.185Z,6.50
2022-11-03T08:39:17.388Z,6.67
2022-11-03T08:41:52.415Z,6.70
2022-11-03T08:44:27.415Z,6.63
2022-11-03T08:47:02.367Z,6.83
2022-11-03T08:49:37.247Z,6.90
2022-11-03T08:52:12.851Z,6.83
2022-11-03T08:54:47.980Z,7.63
2022-11-03T08:57:22.961Z,7.20
2022-11-03T08:59:58.092Z,8.20
2022-11-03T09:02:33.197Z,8.97
2022-11-03T09:05:08.615Z,7.63
2022-11-03T09:10:41.356Z,6.90
2022-11-03T09:13:17.529Z,8.00
2022-11-03T09:15:52.806Z,7.77
2022-11-03T09:18:27.774Z,6.97
2022-11-03T09:21:02.698Z,6.90
2022-11-03T09:23:38.673Z,7.50
2022-11-03T09:26:13.625Z,8.33
2022-11-03T09:28:49.604Z,6.80
2022-11-03T09:31:28.358Z,6.73
2022-11-03T09:34:03.315Z,6.40
2022-11-03T09:36:38.259Z,6.80
2022-11-03T09:39:13.209Z,5.40
2022-11-03T09:41:58.494Z,6.70
2022-11-03T09:44:35.877Z,6.70
2022-11-03T09:47:23.212Z,6.40
2022-11-03T09:49:58.521Z,6.60
2022-11-03T09:52:36.585Z,6.83
2022-11-03T09:55:27.379Z,5.63
2022-11-03T09:58:13.256Z,5.43
2022-11-03T10:00:48.567Z,7.00
2022-11-03T10:03:23.658Z,7.80
2022-11-03T10:05:58.649Z,6.40
2022-11-03T10:08:37.651Z,7.10
2022-11-03T10:11:13.662Z,6.43
2022-11-03T10:13:55.086Z,6.70
2022-11-03T10:16:30.217Z,6.10
2022-11-03T10:19:05.201Z,6.03
2022-11-03T10:21:42.657Z,6.30
2022-11-03T10:24:18.493Z,5.80
2022-11-03T10:26:55.128Z,5.97
2022-11-03T10:29:32.426Z,5.67
2022-11-03T10:32:30.114Z,5.87
2022-11-03T10:35:33.971Z,6.27
2022-11-03T10:38:43.581Z,6.30
2022-11-03T10:41:24.821Z,5.50
2022-11-03T10:44:02.774Z,5.90
2022-11-03T10:46:56.357Z,5.57
2022-11-03T10:49:43.278Z,4.40
2022-11-03T10:52:27.963Z,4.80
2022-11-03T10:55:04.671Z,5.10
2022-11-03T10:57:39.619Z,6.10
2022-11-03T11:00:19.053Z,5.70
2022-11-03T11:03:00.908Z,5.33
2022-11-03T11:05:35.932Z,6.50
2022-11-03T11:08:11.562Z,5.40
2022-11-03T11:10:46.830Z,5.00
2022-11-03T11:13:21.902Z,5.50
2022-11-03T11:16:02.884Z,5.30
2022-11-03T11:18:40.834Z,4.97
2022-11-03T11:21:15.757Z,5.23
2022-11-03T11:23:52.838Z,5.63
2022-11-03T11:26:34.715Z,4.83
2022-11-03T11:29:09.901Z,4.03
2022-11-03T11:31:47.642Z,4.17
2022-11-03T11:34:38.599Z,4.60
2022-11-03T11:37:13.515Z,4.60
2022-11-03T11:39:48.454Z,4.43
2022-11-03T11:42:23.625Z,4.23
2022-11-03T11:45:02.905Z,4.50
2022-11-03T11:47:44.680Z,4.93
2022-11-03T11:50:31.440Z,4.57
2022-11-03T11:53:19.984Z,5.53
2022-11-03T11:56:01.781Z,6.07
2022-11-03T11:58:51.959Z,5.10
2022-11-03T12:01:35.172Z,5.10
2022-11-03T12:04:23.336Z,5.07
2022-11-03T12:06:58.367Z,4.40
2022-11-03T12:09:33.574Z,4.03
2022-11-03T12:12:09.065Z,4.77
2022-11-03T12:14:44.077Z,4.40
2022-11-03T12:17:18.985Z,3.97
2022-11-03T12:19:54.996Z,5.33
2022-11-03T12:22:29.998Z,4.03
2022-11-03T12:25:08.556Z,5.00
2022-11-03T12:27:43.857Z,4.43
2022-11-03T12:30:19.775Z,4.60
2022-11-03T12:32:54.765Z,4.80
2022-11-03T12:35:29.909Z,4.30
2022-11-03T12:38:06.035Z,5.33
2022-11-03T12:40:40.930Z,4.93
2022-11-03T12:43:15.987Z,4.90
2022-11-03T12:45:50.903Z,4.60
2022-11-03T12:48:25.851Z,4.57
2022-11-03T12:51:00.810Z,6.80
2022-11-03T12:53:35.686Z,3.83
2022-11-03T12:56:12.126Z,4.00
2022-11-03T12:58:47.319Z,4.73
2022-11-03T13:01:22.426Z,4.07
2022-11-03T13:03:57.698Z,3.70
2022-11-03T13:06:33.256Z,3.40
2022-11-03T13:09:09.245Z,3.30
2022-11-03T13:12:03.006Z,4.83
2022-11-03T13:14:37.923Z,3.90
2022-11-03T13:17:12.840Z,4.00
2022-11-03T13:19:49.374Z,3.40
2022-11-03T13:22:29.120Z,3.40
2022-11-03T13:25:04.596Z,4.23
2022-11-03T13:27:39.540Z,4.10
2022-11-03T13:30:14.510Z,4.43
2022-11-03T13:32:49.911Z,3.80
2022-11-03T13:35:24.998Z,4.70
2022-11-03T13:37:59.983Z,4.20
2022-11-03T13:40:55.614Z,4.30
2022-11-03T13:43:29.818Z,4.70
2022-11-03T13:46:05.224Z,4.63
2022-11-03T13:51:35.393Z,5.10
2022-11-03T14:00:03.735Z,5.30
2022-11-03T14:05:43.175Z,5.53
2022-11-03T14:08:18.161Z,5.20
2022-11-03T14:10:53.153Z,5.50
2022-11-03T14:13:28.117Z,6.10
2022-11-03T14:16:03.217Z,6.53
2022-11-03T14:18:38.274Z,5.10
2022-11-03T14:21:13.184Z,5.80
2022-11-03T14:23:48.121Z,7.33
2022-11-03T14:26:40.263Z,5.67
2022-11-03T14:29:16.961Z,6.33
2022-11-03T14:31:51.926Z,5.90
2022-11-03T14:34:27.202Z,7.37
2022-11-03T14:37:02.444Z,6.27
2022-11-03T14:39:38.202Z,6.40
2022-11-03T14:42:17.257Z,5.13
2022-11-03T14:47:31.344Z,6.00
2022-11-03T14:50:07.071Z,6.30
2022-11-03T14:52:41.929Z,6.57
2022-11-03T14:55:16.832Z,6.83
2022-11-03T14:57:52.749Z,5.73
2022-11-03T15:00:27.802Z,5.90
2022-11-03T15:03:03.261Z,6.20
2022-11-03T15:05:46.930Z,6.70
2022-11-03T15:08:23.679Z,7.43
2022-11-03T15:10:58.618Z,6.67
2022-11-03T15:13:37.835Z,6.20
2022-11-03T15:16:18.229Z,7.07
2022-11-03T15:18:53.343Z,7.07
2022-11-03T15:21:28.322Z,7.70
2022-11-03T15:26:58.544Z,6.97
2022-11-03T15:29:33.532Z,5.93
2022-11-03T15:32:08.473Z,7.07
2022-11-03T15:34:43.348Z,7.57
2022-11-03T15:37:18.457Z,6.97
2022-11-03T15:39:57.192Z,6.30
2022-11-03T15:42:34.542Z,5.77
2022-11-03T15:45:13.920Z,5.23
2022-11-03T15:47:48.948Z,6.10
2022-11-03T15:50:24.024Z,5.03
2022-11-03T15:52:59.083Z,5.60
2022-11-03T15:55:34.062Z,4.93
2022-11-03T15:58:09.212Z,5.97
2022-11-03T16:00:44.511Z,5.23
2022-11-03T16:03:19.533Z,5.60
2022-11-03T16:05:54.642Z,6.07
2022-11-03T16:08:29.662Z,5.30
2022-11-03T16:11:04.693Z,4.80
2022-11-03T16:13:39.725Z,5.40
2022-11-03T16:16:14.694Z,5.07
2022-11-03T16:18:49.672Z,5.20
2022-11-03T16:21:25.015Z,6.00
2022-11-03T16:23:59.967Z,6.13
2022-11-03T16:26:34.946Z,5.63
2022-11-03T16:29:09.909Z,5.50
2022-11-03T16:31:48.210Z,5.73
2022-11-03T16:34:23.143Z,5.60
2022-11-03T16:36:58.472Z,5.03
2022-11-03T16:39:33.994Z,5.20
2022-11-03T16:42:09.115Z,4.73
2022-11-03T16:44:44.108Z,5.10
2022-11-03T16:47:19.047Z,5.17
2022-11-03T16:49:53.981Z,5.67
2022-11-03T16:52:28.905Z,5.20
2022-11-03T16:55:04.833Z,5.40
2022-11-03T16:57:39.800Z,6.00
2022-11-03T17:00:18.700Z,7.50
2022-11-03T17:02:53.632Z,5.60
2022-11-03T17:05:28.737Z,4.60
2022-11-03T17:08:03.722Z,4.30
2022-11-03T17:10:38.666Z,4.30
2022-11-03T17:13:13.684Z,5.70
2022-11-03T17:15:48.874Z,5.57
2022-11-03T17:18:23.852Z,4.40
2022-11-03T17:20:58.825Z,6.00
2022-11-03T17:23:33.821Z,5.03
2022-11-03T17:26:09.357Z,5.60
2022-11-03T17:28:44.390Z,5.20
2022-11-03T17:31:19.379Z,4.90
2022-11-03T17:33:54.936Z,4.60
2022-11-03T17:36:29.987Z,4.87
2022-11-03T17:39:05.053Z,4.37
2022-11-03T17:41:40.014Z,4.10
2022-11-03T17:44:17.194Z,4.87
2022-11-03T17:46:52.082Z,4.40
2022-11-03T17:49:27.057Z,4.90
2022-11-03T17:52:02.317Z,4.60
2022-11-03T17:54:37.328Z,4.60
2022-11-03T17:57:17.466Z,4.37
2022-11-03T17:59:58.587Z,4.50
2022-11-03T18:02:35.558Z,5.70
2022-11-03T18:05:31.243Z,5.07
2022-11-03T18:08:10.374Z,5.80
2022-11-03T18:10:51.873Z,5.33
2022-11-03T18:13:34.168Z,5.30
2022-11-03T18:16:14.210Z,4.73
2022-11-03T18:18:49.151Z,5.03
2022-11-03T18:21:30.199Z,6.20
2022-11-03T18:24:19.951Z,5.10
2022-11-03T18:26:55.002Z,4.53
2022-11-03T18:29:30.059Z,5.90
2022-11-03T18:32:05.430Z,4.87
2022-11-03T18:34:41.907Z,6.47
2022-11-03T18:37:16.834Z,5.30
2022-11-03T18:39:51.808Z,5.10
2022-11-03T18:42:26.811Z,5.80
2022-11-03T18:45:03.109Z,5.40
2022-11-03T18:47:38.313Z,4.87
2022-11-03T18:50:17.194Z,5.03
2022-11-03T18:52:52.080Z,5.00
2022-11-03T18:55:27.025Z,5.40
2022-11-03T18:58:03.342Z,5.23
2022-11-03T19:00:38.303Z,5.30
2022-11-03T19:03:16.656Z,4.93
2022-11-03T19:05:53.214Z,5.97
2022-11-03T19:08:33.607Z,5.30
2022-11-03T19:11:11.436Z,5.37
2022-11-03T19:13:48.071Z,5.37
2022-11-03T19:16:24.593Z,5.90
2022-11-03T19:18:59.515Z,4.80
2022-11-03T19:21:34.459Z,5.10
2022-11-03T19:24:09.403Z,5.40
2022-11-03T19:26:58.177Z,5.70
2022-11-03T19:29:40.037Z,5.00
2022-11-03T19:32:29.892Z,5.23
2022-11-03T19:35:19.407Z,5.37
2022-11-03T19:38:05.914Z,5.20
2022-11-03T19:41:02.078Z,6.13
2022-11-03T19:43:37.000Z,5.70
2022-11-03T19:46:18.831Z,5.00
2022-11-03T19:48:55.097Z,6.27
2022-11-03T19:51:30.646Z,5.83
2022-11-03T19:54:13.364Z,7.07
2022-11-03T19:56:48.863Z,6.03
2022-11-03T19:59:23.789Z,6.80
2022-11-03T20:01:58.903Z,7.10
2022-11-03T20:04:34.064Z,7.57
2022-11-03T20:07:11.311Z,7.63
2022-11-03T20:09:46.619Z,6.10
2022-11-03T20:12:21.523Z,6.30
2022-11-03T20:14:56.693Z,6.77
2022-11-03T20:17:31.654Z,6.80
2022-11-03T20:20:09.038Z,5.93
2022-11-03T20:22:55.572Z,8.30
2022-11-03T20:25:35.003Z,6.43
2022-11-03T20:28:28.545Z,7.30
2022-11-03T20:31:03.962Z,7.10
2022-11-03T20:33:39.743Z,5.67
2022-11-03T20:36:17.656Z,5.83
2022-11-03T20:38:59.417Z,6.03
2022-11-03T20:41:34.954Z,5.60
2022-11-03T20:44:12.581Z,5.63
2022-11-03T20:46:47.556Z,6.57
2022-11-03T20:49:22.579Z,7.10
2022-11-03T20:51:57.666Z,6.93
2022-11-03T20:54:33.111Z,6.27
2022-11-03T20:57:12.503Z,7.07
2022-11-03T20:59:47.658Z,5.83
2022-11-03T21:02:24.071Z,5.10
2022-11-03T21:05:00.096Z,5.60
2022-11-03T21:07:38.477Z,5.10
2022-11-03T21:10:20.171Z,4.70
2022-11-03T21:12:55.704Z,5.40
2022-11-03T21:16:18.194Z,4.43
2022-11-03T21:19:02.648Z,4.50
2022-11-03T21:21:37.548Z,3.87
2022-11-03T21:24:12.731Z,4.00
2022-11-03T21:26:47.713Z,4.17
2022-11-03T21:29:39.121Z,3.73
2022-11-03T21:32:18.044Z,3.30
2022-11-03T21:34:52.888Z,3.87
2022-11-03T21:37:27.931Z,3.93
2022-11-03T21:40:02.823Z,3.80
2022-11-03T21:42:56.359Z,4.60
2022-11-03T21:45:31.269Z,4.77
2022-11-03T21:48:25.544Z,4.90
2022-11-03T21:51:02.099Z,4.27
2022-11-03T21:53:36.993Z,4.33
2022-11-03T21:56:15.582Z,4.33
2022-11-03T21:58:50.692Z,3.70
2022-11-03T22:01:25.687Z,4.30
2022-11-03T22:04:00.646Z,3.90
2022-11-03T22:06:35.578Z,3.63
2022-11-03T22:09:10.916Z,3.60
2022-11-03T22:11:46.726Z,3.90
2022-11-03T22:14:21.651Z,3.60
2022-11-03T22:16:56.592Z,4.83
2022-11-03T22:19:50.154Z,4.07
2022-11-03T22:22:43.675Z,4.80
2022-11-03T22:25:37.200Z,4.40
2022-11-03T22:28:14.775Z,4.07
2022-11-03T22:31:08.781Z,3.30
2022-11-03T22:34:02.245Z,4.17
2022-11-03T22:36:37.143Z,3.20
2022-11-03T22:39:30.677Z,2.63
2022-11-03T22:42:28.834Z,2.73
2022-11-03T22:45:22.524Z,2.93
2022-11-03T22:47:57.791Z,1.90
2022-11-03T22:50:32.993Z,1.83
2022-11-03T22:53:43.297Z,1.40
2022-11-03T22:56:18.932Z,1.60
2022-11-03T22:58:54.130Z,1.37
2022-11-03T23:01:30.230Z,1.13
2022-11-03T23:04:08.329Z,1.20
2022-11-03T23:06:43.366Z,1.20
2022-11-03T23:09:18.301Z,1.00
2022-11-03T23:11:53.260Z,0.80
2022-11-03T23:14:48.194Z,0.93
2022-11-03T23:17:43.518Z,0.80
2022-11-03T23:20:37.631Z,0.70
2022-11-03T23:23:32.528Z,0.70
2022-11-03T23:26:08.859Z,0.70
2022-11-03T23:28:44.299Z,0.80
2022-11-03T23:31:19.197Z,0.60
2022-11-03T23:33:54.263Z,0.67
2022-11-03T23:36:29.986Z,0.50
2022-11-03T23:39:06.304Z,1.03
2022-11-03T23:41:42.375Z,0.60
2022-11-03T23:44:17.856Z,0.60
2022-11-03T23:47:11.134Z,1.00
2022-11-03T23:49:46.036Z,0.53
2022-11-03T23:52:20.978Z,0.50
2022-11-03T23:54:55.900Z,0.80
2022-11-03T23:57:49.577Z,0.60
